sensor_id;sensor_type;location;lat;lon;timestamp;P1;durP1;ratioP1;P2;durP2;ratioP2
8714;SDS011;4394;51.208;8.904;2023-04-24T00:00:49;1.10;;;0.80;;
8714;SDS011;4394;51.208;8.904;2023-04-24T00:03:39;0.70;;;0.70;;
8714;SDS011;4394;51.208;8.904;2023-04-24T00:06:27;0.50;;;0.50;;
8714;SDS011;4394;51.208;8.904;2023-04-24T00:09:19;1.00;;;0.77;;
8714;SDS011;4394;51.208;8.904;2023-04-24T00:12:07;0.70;;;0.50;;
8714;SDS011;4394;51.208;8.904;2023-04-24T00:14:56;0.37;;;0.37;;
8714;SDS011;4394;51.208;8.904;2023-04-24T00:17:45;0.53;;;0.53;;
8714;SDS011;4394;51.208;8.904;2023-04-24T00:20:34;1.00;;;0.70;;
8714;SDS011;4394;51.208;8.904;2023-04-24T00:23:22;1.13;;;0.70;;
8714;SDS011;4394;51.208;8.904;2023-04-24T00:26:10;1.33;;;0.77;;
8714;SDS011;4394;51.208;8.904;2023-04-24T00:28:59;1.10;;;0.90;;
8714;SDS011;4394;51.208;8.904;2023-04-24T00:31:47;1.67;;;0.70;;
8714;SDS011;4394;51.208;8.904;2023-04-24T00:34:36;2.20;;;0.80;;
8714;SDS011;4394;51.208;8.904;2023-04-24T00:37:25;1.57;;;0.83;;
8714;SDS011;4394;51.208;8.904;2023-04-24T00:40:13;1.47;;;1.17;;
8714;SDS011;4394;51.208;8.904;2023-04-24T00:43:01;2.03;;;0.90;;
8714;SDS011;4394;51.208;8.904;2023-04-24T00:45:49;1.63;;;1.00;;
8714;SDS011;4394;51.208;8.904;2023-04-24T00:48:38;2.07;;;0.90;;
8714;SDS011;4394;51.208;8.904;2023-04-24T00:51:28;2.10;;;1.00;;
8714;SDS011;4394;51.208;8.904;2023-04-24T00:54:17;1.67;;;1.17;;
8714;SDS011;4394;51.208;8.904;2023-04-24T00:57:05;2.53;;;1.30;;
8714;SDS011;4394;51.208;8.904;2023-04-24T00:59:53;1.17;;;0.90;;
8714;SDS011;4394;51.208;8.904;2023-04-24T01:02:42;3.03;;;1.03;;
8714;SDS011;4394;51.208;8.904;2023-04-24T01:05:32;1.37;;;0.90;;
8714;SDS011;4394;51.208;8.904;2023-04-24T01:08:22;1.37;;;1.00;;
8714;SDS011;4394;51.208;8.904;2023-04-24T01:11:12;1.13;;;1.03;;
8714;SDS011;4394;51.208;8.904;2023-04-24T01:14:00;2.10;;;0.90;;
8714;SDS011;4394;51.208;8.904;2023-04-24T01:16:49;1.50;;;1.37;;
8714;SDS011;4394;51.208;8.904;2023-04-24T01:19:37;1.73;;;1.00;;
8714;SDS011;4394;51.208;8.904;2023-04-24T01:22:28;1.23;;;0.87;;
8714;SDS011;4394;51.208;8.904;2023-04-24T01:25:16;1.83;;;1.17;;
8714;SDS011;4394;51.208;8.904;2023-04-24T01:28:04;1.03;;;0.93;;
8714;SDS011;4394;51.208;8.904;2023-04-24T01:30:53;1.60;;;1.00;;
8714;SDS011;4394;51.208;8.904;2023-04-24T01:33:41;2.40;;;1.10;;
8714;SDS011;4394;51.208;8.904;2023-04-24T01:36:29;0.83;;;0.80;;
8714;SDS011;4394;51.208;8.904;2023-04-24T01:39:20;2.87;;;1.17;;
8714;SDS011;4394;51.208;8.904;2023-04-24T01:42:09;1.60;;;1.10;;
8714;SDS011;4394;51.208;8.904;2023-04-24T01:44:57;1.50;;;1.20;;
8714;SDS011;4394;51.208;8.904;2023-04-24T01:47:46;1.37;;;1.27;;
8714;SDS011;4394;51.208;8.904;2023-04-24T01:50:35;2.17;;;1.40;;
8714;SDS011;4394;51.208;8.904;2023-04-24T01:53:23;1.80;;;1.50;;
8714;SDS011;4394;51.208;8.904;2023-04-24T01:56:13;1.30;;;1.20;;
8714;SDS011;4394;51.208;8.904;2023-04-24T01:59:02;2.90;;;1.40;;
8714;SDS011;4394;51.208;8.904;2023-04-24T02:01:50;2.30;;;1.70;;
8714;SDS011;4394;51.208;8.904;2023-04-24T02:04:39;2.33;;;1.57;;
8714;SDS011;4394;51.208;8.904;2023-04-24T02:07:27;1.30;;;1.20;;
8714;SDS011;4394;51.208;8.904;2023-04-24T02:10:15;1.47;;;1.37;;
8714;SDS011;4394;51.208;8.904;2023-04-24T02:13:05;2.00;;;1.30;;
8714;SDS011;4394;51.208;8.904;2023-04-24T02:15:53;1.90;;;1.73;;
8714;SDS011;4394;51.208;8.904;2023-04-24T02:18:41;2.90;;;1.80;;
8714;SDS011;4394;51.208;8.904;2023-04-24T02:21:29;1.87;;;1.73;;
8714;SDS011;4394;51.208;8.904;2023-04-24T02:24:18;2.23;;;1.47;;
8714;SDS011;4394;51.208;8.904;2023-04-24T02:27:06;2.33;;;1.50;;
8714;SDS011;4394;51.208;8.904;2023-04-24T02:29:56;2.03;;;1.63;;
8714;SDS011;4394;51.208;8.904;2023-04-24T02:32:44;2.13;;;1.67;;
8714;SDS011;4394;51.208;8.904;2023-04-24T02:35:32;3.43;;;1.80;;
8714;SDS011;4394;51.208;8.904;2023-04-24T02:38:20;2.30;;;1.60;;
8714;SDS011;4394;51.208;8.904;2023-04-24T02:41:08;1.93;;;1.73;;
8714;SDS011;4394;51.208;8.904;2023-04-24T02:43:56;2.10;;;1.60;;
8714;SDS011;4394;51.208;8.904;2023-04-24T02:46:46;3.30;;;1.73;;
8714;SDS011;4394;51.208;8.904;2023-04-24T02:49:34;2.37;;;1.60;;
8714;SDS011;4394;51.208;8.904;2023-04-24T02:52:22;2.30;;;1.70;;
8714;SDS011;4394;51.208;8.904;2023-04-24T02:55:11;3.53;;;1.43;;
8714;SDS011;4394;51.208;8.904;2023-04-24T02:57:59;2.10;;;1.90;;
8714;SDS011;4394;51.208;8.904;2023-04-24T03:00:47;2.60;;;1.63;;
8714;SDS011;4394;51.208;8.904;2023-04-24T03:03:37;2.20;;;1.80;;
8714;SDS011;4394;51.208;8.904;2023-04-24T03:06:26;1.73;;;1.63;;
8714;SDS011;4394;51.208;8.904;2023-04-24T03:09:14;2.43;;;2.00;;
8714;SDS011;4394;51.208;8.904;2023-04-24T03:12:02;1.97;;;1.70;;
8714;SDS011;4394;51.208;8.904;2023-04-24T03:14:50;3.03;;;1.73;;
8714;SDS011;4394;51.208;8.904;2023-04-24T03:17:39;3.80;;;1.80;;
8714;SDS011;4394;51.208;8.904;2023-04-24T03:20:28;1.90;;;1.60;;
8714;SDS011;4394;51.208;8.904;2023-04-24T03:23:17;3.50;;;1.90;;
8714;SDS011;4394;51.208;8.904;2023-04-24T03:26:05;3.30;;;1.63;;
8714;SDS011;4394;51.208;8.904;2023-04-24T03:28:53;1.93;;;1.70;;
8714;SDS011;4394;51.208;8.904;2023-04-24T03:31:42;1.37;;;1.27;;
8714;SDS011;4394;51.208;8.904;2023-04-24T03:34:31;2.00;;;1.70;;
8714;SDS011;4394;51.208;8.904;2023-04-24T03:37:21;1.77;;;1.53;;
8714;SDS011;4394;51.208;8.904;2023-04-24T03:40:09;2.40;;;1.90;;
8714;SDS011;4394;51.208;8.904;2023-04-24T03:42:57;1.87;;;1.70;;
8714;SDS011;4394;51.208;8.904;2023-04-24T03:45:45;2.33;;;2.00;;
8714;SDS011;4394;51.208;8.904;2023-04-24T03:48:34;2.07;;;1.87;;
8714;SDS011;4394;51.208;8.904;2023-04-24T03:51:22;2.43;;;2.00;;
8714;SDS011;4394;51.208;8.904;2023-04-24T03:54:12;3.40;;;2.00;;
8714;SDS011;4394;51.208;8.904;2023-04-24T03:57:00;3.80;;;2.20;;
8714;SDS011;4394;51.208;8.904;2023-04-24T03:59:49;3.30;;;2.20;;
8714;SDS011;4394;51.208;8.904;2023-04-24T04:02:39;3.37;;;2.10;;
8714;SDS011;4394;51.208;8.904;2023-04-24T04:05:28;2.00;;;1.90;;
8714;SDS011;4394;51.208;8.904;2023-04-24T04:08:16;2.37;;;2.17;;
8714;SDS011;4394;51.208;8.904;2023-04-24T04:11:06;2.43;;;1.90;;
8714;SDS011;4394;51.208;8.904;2023-04-24T04:13:54;2.30;;;1.93;;
8714;SDS011;4394;51.208;8.904;2023-04-24T04:16:43;2.97;;;2.60;;
8714;SDS011;4394;51.208;8.904;2023-04-24T04:19:31;2.20;;;2.00;;
8714;SDS011;4394;51.208;8.904;2023-04-24T04:22:20;3.23;;;2.10;;
8714;SDS011;4394;51.208;8.904;2023-04-24T04:25:08;3.57;;;2.10;;
8714;SDS011;4394;51.208;8.904;2023-04-24T04:27:59;2.70;;;2.10;;
8714;SDS011;4394;51.208;8.904;2023-04-24T04:30:49;2.73;;;2.10;;
8714;SDS011;4394;51.208;8.904;2023-04-24T04:33:40;2.30;;;2.10;;
8714;SDS011;4394;51.208;8.904;2023-04-24T04:36:28;1.80;;;1.57;;
8714;SDS011;4394;51.208;8.904;2023-04-24T04:39:17;2.00;;;1.40;;
8714;SDS011;4394;51.208;8.904;2023-04-24T04:42:06;1.60;;;1.30;;
8714;SDS011;4394;51.208;8.904;2023-04-24T04:44:55;2.33;;;1.40;;
8714;SDS011;4394;51.208;8.904;2023-04-24T04:47:44;1.20;;;1.10;;
8714;SDS011;4394;51.208;8.904;2023-04-24T04:50:33;1.63;;;1.40;;
8714;SDS011;4394;51.208;8.904;2023-04-24T04:53:21;1.73;;;1.20;;
8714;SDS011;4394;51.208;8.904;2023-04-24T04:56:09;2.20;;;1.43;;
8714;SDS011;4394;51.208;8.904;2023-04-24T04:58:58;1.73;;;1.63;;
8714;SDS011;4394;51.208;8.904;2023-04-24T05:01:48;2.20;;;1.83;;
8714;SDS011;4394;51.208;8.904;2023-04-24T05:04:36;3.07;;;1.70;;
8714;SDS011;4394;51.208;8.904;2023-04-24T05:07:25;1.70;;;1.57;;
8714;SDS011;4394;51.208;8.904;2023-04-24T05:10:13;1.87;;;1.73;;
8714;SDS011;4394;51.208;8.904;2023-04-24T05:13:02;1.60;;;1.50;;
8714;SDS011;4394;51.208;8.904;2023-04-24T05:15:51;2.87;;;2.23;;
8714;SDS011;4394;51.208;8.904;2023-04-24T05:18:40;4.37;;;2.60;;
8714;SDS011;4394;51.208;8.904;2023-04-24T05:21:28;2.90;;;2.30;;
8714;SDS011;4394;51.208;8.904;2023-04-24T05:24:17;3.57;;;2.40;;
8714;SDS011;4394;51.208;8.904;2023-04-24T05:27:05;3.80;;;3.10;;
8714;SDS011;4394;51.208;8.904;2023-04-24T05:29:54;4.60;;;3.90;;
8714;SDS011;4394;51.208;8.904;2023-04-24T05:32:42;5.73;;;3.77;;
8714;SDS011;4394;51.208;8.904;2023-04-24T05:35:33;5.70;;;3.97;;
8714;SDS011;4394;51.208;8.904;2023-04-24T05:38:21;4.70;;;4.00;;
8714;SDS011;4394;51.208;8.904;2023-04-24T05:41:09;5.73;;;4.70;;
8714;SDS011;4394;51.208;8.904;2023-04-24T05:43:57;5.03;;;4.47;;
8714;SDS011;4394;51.208;8.904;2023-04-24T05:46:46;5.57;;;4.40;;
8714;SDS011;4394;51.208;8.904;2023-04-24T05:49:34;6.20;;;5.00;;
8714;SDS011;4394;51.208;8.904;2023-04-24T05:52:24;6.30;;;4.97;;
8714;SDS011;4394;51.208;8.904;2023-04-24T05:55:12;6.70;;;4.97;;
8714;SDS011;4394;51.208;8.904;2023-04-24T05:58:03;6.23;;;5.60;;
8714;SDS011;4394;51.208;8.904;2023-04-24T06:00:52;7.97;;;4.93;;
8714;SDS011;4394;51.208;8.904;2023-04-24T06:03:41;5.97;;;5.03;;
8714;SDS011;4394;51.208;8.904;2023-04-24T06:06:30;6.07;;;5.17;;
8714;SDS011;4394;51.208;8.904;2023-04-24T06:09:20;7.47;;;5.17;;
8714;SDS011;4394;51.208;8.904;2023-04-24T06:12:08;6.10;;;5.17;;
8714;SDS011;4394;51.208;8.904;2023-04-24T06:14:57;6.57;;;5.20;;
8714;SDS011;4394;51.208;8.904;2023-04-24T06:17:45;7.57;;;5.03;;
8714;SDS011;4394;51.208;8.904;2023-04-24T06:20:33;6.33;;;5.20;;
8714;SDS011;4394;51.208;8.904;2023-04-24T06:23:22;6.97;;;5.17;;
8714;SDS011;4394;51.208;8.904;2023-04-24T06:26:11;7.03;;;5.30;;
8714;SDS011;4394;51.208;8.904;2023-04-24T06:29:00;5.50;;;4.90;;
8714;SDS011;4394;51.208;8.904;2023-04-24T06:31:48;5.90;;;5.00;;
8714;SDS011;4394;51.208;8.904;2023-04-24T06:34:37;7.07;;;4.90;;
8714;SDS011;4394;51.208;8.904;2023-04-24T06:37:25;5.83;;;4.53;;
8714;SDS011;4394;51.208;8.904;2023-04-24T06:40:14;5.93;;;5.10;;
8714;SDS011;4394;51.208;8.904;2023-04-24T06:43:06;5.67;;;4.20;;
8714;SDS011;4394;51.208;8.904;2023-04-24T06:45:54;5.33;;;4.67;;
8714;SDS011;4394;51.208;8.904;2023-04-24T06:48:42;5.93;;;4.30;;
8714;SDS011;4394;51.208;8.904;2023-04-24T06:51:31;4.60;;;3.93;;
8714;SDS011;4394;51.208;8.904;2023-04-24T06:54:20;4.30;;;3.73;;
8714;SDS011;4394;51.208;8.904;2023-04-24T06:57:08;4.17;;;3.73;;
8714;SDS011;4394;51.208;8.904;2023-04-24T06:59:58;4.50;;;3.73;;
8714;SDS011;4394;51.208;8.904;2023-04-24T07:02:47;8.10;;;4.40;;
8714;SDS011;4394;51.208;8.904;2023-04-24T07:05:36;4.23;;;3.73;;
8714;SDS011;4394;51.208;8.904;2023-04-24T07:08:24;4.53;;;4.07;;
8714;SDS011;4394;51.208;8.904;2023-04-24T07:11:13;4.83;;;3.97;;
8714;SDS011;4394;51.208;8.904;2023-04-24T07:14:02;4.97;;;4.13;;
8714;SDS011;4394;51.208;8.904;2023-04-24T07:16:52;4.10;;;3.63;;
8714;SDS011;4394;51.208;8.904;2023-04-24T07:19:40;4.60;;;3.67;;
8714;SDS011;4394;51.208;8.904;2023-04-24T07:22:29;4.90;;;4.07;;
8714;SDS011;4394;51.208;8.904;2023-04-24T07:25:19;5.07;;;4.23;;
8714;SDS011;4394;51.208;8.904;2023-04-24T07:28:07;5.83;;;3.80;;
8714;SDS011;4394;51.208;8.904;2023-04-24T07:30:55;5.73;;;4.10;;
8714;SDS011;4394;51.208;8.904;2023-04-24T07:33:46;4.60;;;3.60;;
8714;SDS011;4394;51.208;8.904;2023-04-24T07:36:34;4.30;;;3.77;;
8714;SDS011;4394;51.208;8.904;2023-04-24T07:39:24;3.87;;;3.47;;
8714;SDS011;4394;51.208;8.904;2023-04-24T07:42:12;5.30;;;3.60;;
8714;SDS011;4394;51.208;8.904;2023-04-24T07:45:01;4.77;;;4.07;;
8714;SDS011;4394;51.208;8.904;2023-04-24T07:47:50;4.37;;;3.70;;
8714;SDS011;4394;51.208;8.904;2023-04-24T07:50:40;5.60;;;3.80;;
8714;SDS011;4394;51.208;8.904;2023-04-24T07:53:28;4.87;;;3.93;;
8714;SDS011;4394;51.208;8.904;2023-04-24T07:56:17;4.87;;;3.77;;
8714;SDS011;4394;51.208;8.904;2023-04-24T07:59:05;4.23;;;3.50;;
8714;SDS011;4394;51.208;8.904;2023-04-24T08:01:53;6.80;;;4.17;;
8714;SDS011;4394;51.208;8.904;2023-04-24T08:04:42;4.13;;;3.53;;
8714;SDS011;4394;51.208;8.904;2023-04-24T08:07:33;4.57;;;3.50;;
8714;SDS011;4394;51.208;8.904;2023-04-24T08:10:22;3.73;;;3.23;;
8714;SDS011;4394;51.208;8.904;2023-04-24T08:13:11;4.27;;;3.20;;
8714;SDS011;4394;51.208;8.904;2023-04-24T08:16:00;3.63;;;3.00;;
8714;SDS011;4394;51.208;8.904;2023-04-24T08:18:48;3.97;;;3.10;;
8714;SDS011;4394;51.208;8.904;2023-04-24T08:21:37;3.57;;;3.20;;
8714;SDS011;4394;51.208;8.904;2023-04-24T08:24:26;3.30;;;3.00;;
8714;SDS011;4394;51.208;8.904;2023-04-24T08:27:14;3.47;;;3.10;;
8714;SDS011;4394;51.208;8.904;2023-04-24T08:30:03;3.33;;;2.73;;
8714;SDS011;4394;51.208;8.904;2023-04-24T08:32:52;3.03;;;2.70;;
8714;SDS011;4394;51.208;8.904;2023-04-24T08:35:41;4.90;;;3.00;;
8714;SDS011;4394;51.208;8.904;2023-04-24T08:38:29;3.53;;;2.80;;
8714;SDS011;4394;51.208;8.904;2023-04-24T08:41:19;3.73;;;2.90;;
8714;SDS011;4394;51.208;8.904;2023-04-24T08:44:09;3.60;;;2.73;;
8714;SDS011;4394;51.208;8.904;2023-04-24T08:46:58;4.30;;;2.77;;
8714;SDS011;4394;51.208;8.904;2023-04-24T08:49:46;2.90;;;2.60;;
8714;SDS011;4394;51.208;8.904;2023-04-24T08:52:36;4.50;;;2.83;;
8714;SDS011;4394;51.208;8.904;2023-04-24T08:55:25;4.07;;;2.70;;
8714;SDS011;4394;51.208;8.904;2023-04-24T08:58:15;3.10;;;2.80;;
8714;SDS011;4394;51.208;8.904;2023-04-24T09:01:04;3.00;;;2.70;;
8714;SDS011;4394;51.208;8.904;2023-04-24T09:03:54;3.57;;;2.90;;
8714;SDS011;4394;51.208;8.904;2023-04-24T09:06:44;3.10;;;2.80;;
8714;SDS011;4394;51.208;8.904;2023-04-24T09:09:32;3.00;;;2.60;;
8714;SDS011;4394;51.208;8.904;2023-04-24T09:12:22;4.20;;;2.80;;
8714;SDS011;4394;51.208;8.904;2023-04-24T09:15:12;4.43;;;2.83;;
8714;SDS011;4394;51.208;8.904;2023-04-24T09:18:00;3.40;;;2.57;;
8714;SDS011;4394;51.208;8.904;2023-04-24T09:20:58;3.27;;;2.97;;
8714;SDS011;4394;51.208;8.904;2023-04-24T09:23:57;2.80;;;2.40;;
8714;SDS011;4394;51.208;8.904;2023-04-24T09:26:46;6.70;;;2.80;;
8714;SDS011;4394;51.208;8.904;2023-04-24T09:29:34;2.30;;;2.10;;
8714;SDS011;4394;51.208;8.904;2023-04-24T09:32:24;2.37;;;2.17;;
8714;SDS011;4394;51.208;8.904;2023-04-24T09:35:15;2.70;;;2.10;;
8714;SDS011;4394;51.208;8.904;2023-04-24T09:38:03;1.77;;;1.67;;
8714;SDS011;4394;51.208;8.904;2023-04-24T09:40:51;2.37;;;1.50;;
8714;SDS011;4394;51.208;8.904;2023-04-24T09:43:40;1.57;;;1.47;;
8714;SDS011;4394;51.208;8.904;2023-04-24T09:46:32;1.30;;;1.20;;
8714;SDS011;4394;51.208;8.904;2023-04-24T09:49:23;1.90;;;1.17;;
8714;SDS011;4394;51.208;8.904;2023-04-24T09:52:12;1.07;;;1.07;;
8714;SDS011;4394;51.208;8.904;2023-04-24T09:55:03;1.03;;;0.93;;
8714;SDS011;4394;51.208;8.904;2023-04-24T09:57:59;2.73;;;0.83;;
8714;SDS011;4394;51.208;8.904;2023-04-24T10:00:53;1.10;;;0.83;;
8714;SDS011;4394;51.208;8.904;2023-04-24T10:03:42;1.00;;;0.80;;
8714;SDS011;4394;51.208;8.904;2023-04-24T10:06:33;0.87;;;0.87;;
8714;SDS011;4394;51.208;8.904;2023-04-24T10:09:22;1.30;;;0.87;;
8714;SDS011;4394;51.208;8.904;2023-04-24T10:12:12;1.00;;;0.90;;
8714;SDS011;4394;51.208;8.904;2023-04-24T10:15:02;2.20;;;1.07;;
8714;SDS011;4394;51.208;8.904;2023-04-24T10:17:52;1.57;;;0.93;;
8714;SDS011;4394;51.208;8.904;2023-04-24T10:20:41;1.10;;;1.00;;
8714;SDS011;4394;51.208;8.904;2023-04-24T10:23:31;0.50;;;0.50;;
8714;SDS011;4394;51.208;8.904;2023-04-24T10:26:20;0.53;;;0.30;;
8714;SDS011;4394;51.208;8.904;2023-04-24T10:29:09;0.40;;;0.40;;
8714;SDS011;4394;51.208;8.904;2023-04-24T10:31:59;1.30;;;0.40;;
8714;SDS011;4394;51.208;8.904;2023-04-24T10:34:47;0.30;;;0.30;;
8714;SDS011;4394;51.208;8.904;2023-04-24T10:37:36;0.20;;;0.20;;
8714;SDS011;4394;51.208;8.904;2023-04-24T10:40:29;0.37;;;0.17;;
8714;SDS011;4394;51.208;8.904;2023-04-24T10:43:18;0.10;;;0.10;;
8714;SDS011;4394;51.208;8.904;2023-04-24T10:46:07;0.03;;;0.00;;
8714;SDS011;4394;51.208;8.904;2023-04-24T10:48:57;1.40;;;0.10;;
8714;SDS011;4394;51.208;8.904;2023-04-24T10:51:46;0.20;;;0.10;;
8714;SDS011;4394;51.208;8.904;2023-04-24T10:54:36;0.00;;;0.00;;
8714;SDS011;4394;51.208;8.904;2023-04-24T10:57:30;0.10;;;0.10;;
8714;SDS011;4394;51.208;8.904;2023-04-24T11:00:20;0.50;;;0.10;;
8714;SDS011;4394;51.208;8.904;2023-04-24T11:03:22;0.10;;;0.10;;
8714;SDS011;4394;51.208;8.904;2023-04-24T11:06:12;0.20;;;0.20;;
8714;SDS011;4394;51.208;8.904;2023-04-24T11:09:04;0.17;;;0.10;;
8714;SDS011;4394;51.208;8.904;2023-04-24T11:12:02;0.47;;;0.20;;
8714;SDS011;4394;51.208;8.904;2023-04-24T11:15:01;0.20;;;0.20;;
8714;SDS011;4394;51.208;8.904;2023-04-24T11:17:50;0.20;;;0.20;;
8714;SDS011;4394;51.208;8.904;2023-04-24T11:20:44;0.17;;;0.17;;
8714;SDS011;4394;51.208;8.904;2023-04-24T11:23:35;0.30;;;0.30;;
8714;SDS011;4394;51.208;8.904;2023-04-24T11:26:24;0.33;;;0.17;;
8714;SDS011;4394;51.208;8.904;2023-04-24T11:29:19;0.20;;;0.20;;
8714;SDS011;4394;51.208;8.904;2023-04-24T11:32:18;0.80;;;0.33;;
8714;SDS011;4394;51.208;8.904;2023-04-24T11:35:13;0.20;;;0.20;;
8714;SDS011;4394;51.208;8.904;2023-04-24T11:38:03;0.10;;;0.10;;
8714;SDS011;4394;51.208;8.904;2023-04-24T11:40:55;0.10;;;0.10;;
8714;SDS011;4394;51.208;8.904;2023-04-24T11:43:44;0.37;;;0.10;;
8714;SDS011;4394;51.208;8.904;2023-04-24T11:46:34;0.20;;;0.20;;
8714;SDS011;4394;51.208;8.904;2023-04-24T11:49:27;0.13;;;0.10;;
8714;SDS011;4394;51.208;8.904;2023-04-24T11:52:15;0.10;;;0.10;;
8714;SDS011;4394;51.208;8.904;2023-04-24T11:55:05;0.20;;;0.20;;
8714;SDS011;4394;51.208;8.904;2023-04-24T11:57:55;0.30;;;0.30;;
8714;SDS011;4394;51.208;8.904;2023-04-24T12:00:45;0.30;;;0.20;;
8714;SDS011;4394;51.208;8.904;2023-04-24T12:03:46;0.10;;;0.10;;
8714;SDS011;4394;51.208;8.904;2023-04-24T12:06:39;0.10;;;0.10;;
8714;SDS011;4394;51.208;8.904;2023-04-24T12:09:27;0.10;;;0.10;;
8714;SDS011;4394;51.208;8.904;2023-04-24T12:12:16;0.10;;;0.10;;
8714;SDS011;4394;51.208;8.904;2023-04-24T12:15:06;0.03;;;0.03;;
8714;SDS011;4394;51.208;8.904;2023-04-24T12:17:56;0.10;;;0.10;;
8714;SDS011;4394;51.208;8.904;2023-04-24T12:20:45;0.10;;;0.10;;
8714;SDS011;4394;51.208;8.904;2023-04-24T12:23:36;0.10;;;0.10;;
8714;SDS011;4394;51.208;8.904;2023-04-24T12:26:25;0.10;;;0.10;;
8714;SDS011;4394;51.208;8.904;2023-04-24T12:29:19;0.03;;;0.03;;
8714;SDS011;4394;51.208;8.904;2023-04-24T12:32:15;0.37;;;0.10;;
8714;SDS011;4394;51.208;8.904;2023-04-24T12:35:04;0.10;;;0.10;;
8714;SDS011;4394;51.208;8.904;2023-04-24T12:37:53;0.00;;;0.00;;
8714;SDS011;4394;51.208;8.904;2023-04-24T12:40:43;0.00;;;0.00;;
8714;SDS011;4394;51.208;8.904;2023-04-24T12:43:31;0.10;;;0.10;;
8714;SDS011;4394;51.208;8.904;2023-04-24T12:46:20;0.20;;;0.13;;
8714;SDS011;4394;51.208;8.904;2023-04-24T12:49:08;0.10;;;0.10;;
8714;SDS011;4394;51.208;8.904;2023-04-24T12:51:57;0.20;;;0.20;;
8714;SDS011;4394;51.208;8.904;2023-04-24T12:54:45;0.20;;;0.20;;
8714;SDS011;4394;51.208;8.904;2023-04-24T12:57:35;0.10;;;0.10;;
8714;SDS011;4394;51.208;8.904;2023-04-24T13:00:24;1.40;;;0.40;;
8714;SDS011;4394;51.208;8.904;2023-04-24T13:03:13;0.87;;;0.40;;
8714;SDS011;4394;51.208;8.904;2023-04-24T13:06:02;0.53;;;0.53;;
8714;SDS011;4394;51.208;8.904;2023-04-24T13:08:50;0.40;;;0.40;;
8714;SDS011;4394;51.208;8.904;2023-04-24T13:11:38;0.67;;;0.67;;
8714;SDS011;4394;51.208;8.904;2023-04-24T13:14:28;0.60;;;0.60;;
8714;SDS011;4394;51.208;8.904;2023-04-24T13:17:16;0.63;;;0.50;;
8714;SDS011;4394;51.208;8.904;2023-04-24T13:20:05;0.40;;;0.40;;
8714;SDS011;4394;51.208;8.904;2023-04-24T13:22:54;0.70;;;0.70;;
8714;SDS011;4394;51.208;8.904;2023-04-24T13:25:43;0.97;;;0.50;;
8714;SDS011;4394;51.208;8.904;2023-04-24T13:28:31;0.57;;;0.57;;
8714;SDS011;4394;51.208;8.904;2023-04-24T13:31:20;1.27;;;0.50;;
8714;SDS011;4394;51.208;8.904;2023-04-24T13:34:09;1.00;;;0.93;;
8714;SDS011;4394;51.208;8.904;2023-04-24T13:36:57;1.73;;;1.20;;
8714;SDS011;4394;51.208;8.904;2023-04-24T13:39:46;1.90;;;1.33;;
8714;SDS011;4394;51.208;8.904;2023-04-24T13:42:34;2.13;;;1.50;;
8714;SDS011;4394;51.208;8.904;2023-04-24T13:45:23;1.90;;;1.70;;
8714;SDS011;4394;51.208;8.904;2023-04-24T13:48:12;2.23;;;2.00;;
8714;SDS011;4394;51.208;8.904;2023-04-24T13:51:01;2.80;;;1.70;;
8714;SDS011;4394;51.208;8.904;2023-04-24T13:53:50;3.13;;;1.80;;
8714;SDS011;4394;51.208;8.904;2023-04-24T13:56:39;2.20;;;2.00;;
8714;SDS011;4394;51.208;8.904;2023-04-24T13:59:27;2.53;;;1.97;;
8714;SDS011;4394;51.208;8.904;2023-04-24T14:02:15;2.83;;;1.80;;
8714;SDS011;4394;51.208;8.904;2023-04-24T14:05:06;3.37;;;2.03;;
8714;SDS011;4394;51.208;8.904;2023-04-24T14:07:54;3.27;;;2.10;;
8714;SDS011;4394;51.208;8.904;2023-04-24T14:10:42;4.13;;;2.13;;
8714;SDS011;4394;51.208;8.904;2023-04-24T14:13:30;3.60;;;2.00;;
8714;SDS011;4394;51.208;8.904;2023-04-24T14:16:19;3.60;;;1.90;;
8714;SDS011;4394;51.208;8.904;2023-04-24T14:19:07;3.93;;;2.20;;
8714;SDS011;4394;51.208;8.904;2023-04-24T14:21:57;4.50;;;1.97;;
8714;SDS011;4394;51.208;8.904;2023-04-24T14:24:45;5.60;;;2.73;;
8714;SDS011;4394;51.208;8.904;2023-04-24T14:27:34;3.57;;;2.37;;
8714;SDS011;4394;51.208;8.904;2023-04-24T14:30:22;3.97;;;2.77;;
8714;SDS011;4394;51.208;8.904;2023-04-24T14:33:10;3.47;;;2.47;;
8714;SDS011;4394;51.208;8.904;2023-04-24T14:35:59;9.13;;;2.80;;
8714;SDS011;4394;51.208;8.904;2023-04-24T14:38:50;3.50;;;2.53;;
8714;SDS011;4394;51.208;8.904;2023-04-24T14:41:38;4.70;;;2.33;;
8714;SDS011;4394;51.208;8.904;2023-04-24T14:44:27;4.83;;;2.60;;
8714;SDS011;4394;51.208;8.904;2023-04-24T14:47:15;4.70;;;2.60;;
8714;SDS011;4394;51.208;8.904;2023-04-24T14:50:08;4.33;;;2.50;;
8714;SDS011;4394;51.208;8.904;2023-04-24T14:52:56;5.33;;;2.40;;
8714;SDS011;4394;51.208;8.904;2023-04-24T14:55:46;4.93;;;2.50;;
8714;SDS011;4394;51.208;8.904;2023-04-24T14:58:34;4.50;;;2.57;;
8714;SDS011;4394;51.208;8.904;2023-04-24T15:01:23;5.73;;;2.50;;
8714;SDS011;4394;51.208;8.904;2023-04-24T15:04:11;5.20;;;2.43;;
8714;SDS011;4394;51.208;8.904;2023-04-24T15:07:00;5.97;;;2.73;;
8714;SDS011;4394;51.208;8.904;2023-04-24T15:09:48;5.60;;;2.63;;
8714;SDS011;4394;51.208;8.904;2023-04-24T15:12:38;3.80;;;2.40;;
8714;SDS011;4394;51.208;8.904;2023-04-24T15:15:26;6.93;;;2.80;;
8714;SDS011;4394;51.208;8.904;2023-04-24T15:18:14;6.53;;;2.83;;
8714;SDS011;4394;51.208;8.904;2023-04-24T15:21:03;5.80;;;3.00;;
8714;SDS011;4394;51.208;8.904;2023-04-24T15:23:51;6.20;;;3.10;;
8714;SDS011;4394;51.208;8.904;2023-04-24T15:26:40;7.40;;;3.00;;
8714;SDS011;4394;51.208;8.904;2023-04-24T15:29:29;5.07;;;3.07;;
8714;SDS011;4394;51.208;8.904;2023-04-24T15:32:18;6.97;;;3.10;;
8714;SDS011;4394;51.208;8.904;2023-04-24T15:35:06;6.53;;;3.27;;
8714;SDS011;4394;51.208;8.904;2023-04-24T15:37:56;3.27;;;2.40;;
8714;SDS011;4394;51.208;8.904;2023-04-24T15:40:44;5.10;;;2.50;;
8714;SDS011;4394;51.208;8.904;2023-04-24T15:43:32;11.37;;;6.40;;
8714;SDS011;4394;51.208;8.904;2023-04-24T15:46:22;8.67;;;5.07;;
8714;SDS011;4394;51.208;8.904;2023-04-24T15:49:11;5.27;;;3.10;;
8714;SDS011;4394;51.208;8.904;2023-04-24T15:51:59;4.97;;;2.83;;
8714;SDS011;4394;51.208;8.904;2023-04-24T15:54:47;3.00;;;2.50;;
8714;SDS011;4394;51.208;8.904;2023-04-24T15:57:36;6.80;;;5.07;;
8714;SDS011;4394;51.208;8.904;2023-04-24T16:00:24;3.63;;;2.90;;
8714;SDS011;4394;51.208;8.904;2023-04-24T16:03:15;4.70;;;2.60;;
8714;SDS011;4394;51.208;8.904;2023-04-24T16:06:04;4.30;;;2.60;;
8714;SDS011;4394;51.208;8.904;2023-04-24T16:08:52;5.83;;;2.60;;
8714;SDS011;4394;51.208;8.904;2023-04-24T16:11:44;5.20;;;2.60;;
8714;SDS011;4394;51.208;8.904;2023-04-24T16:14:33;4.37;;;2.40;;
8714;SDS011;4394;51.208;8.904;2023-04-24T16:17:21;3.33;;;2.77;;
8714;SDS011;4394;51.208;8.904;2023-04-24T16:20:12;5.27;;;2.30;;
8714;SDS011;4394;51.208;8.904;2023-04-24T16:23:01;5.50;;;2.60;;
8714;SDS011;4394;51.208;8.904;2023-04-24T16:25:49;5.57;;;2.50;;
8714;SDS011;4394;51.208;8.904;2023-04-24T16:28:37;4.13;;;2.30;;
8714;SDS011;4394;51.208;8.904;2023-04-24T16:31:26;2.17;;;1.97;;
8714;SDS011;4394;51.208;8.904;2023-04-24T16:34:14;5.00;;;2.40;;
8714;SDS011;4394;51.208;8.904;2023-04-24T16:37:04;3.53;;;2.50;;
8714;SDS011;4394;51.208;8.904;2023-04-24T16:39:52;3.83;;;2.30;;
8714;SDS011;4394;51.208;8.904;2023-04-24T16:42:41;3.70;;;2.50;;
8714;SDS011;4394;51.208;8.904;2023-04-24T16:45:29;3.97;;;2.13;;
8714;SDS011;4394;51.208;8.904;2023-04-24T16:48:18;3.93;;;2.30;;
8714;SDS011;4394;51.208;8.904;2023-04-24T16:51:06;5.10;;;2.23;;
8714;SDS011;4394;51.208;8.904;2023-04-24T16:53:55;3.93;;;2.43;;
8714;SDS011;4394;51.208;8.904;2023-04-24T16:56:44;3.13;;;2.20;;
8714;SDS011;4394;51.208;8.904;2023-04-24T16:59:32;3.57;;;2.27;;
8714;SDS011;4394;51.208;8.904;2023-04-24T17:02:21;4.30;;;2.10;;
8714;SDS011;4394;51.208;8.904;2023-04-24T17:05:10;4.10;;;2.10;;
8714;SDS011;4394;51.208;8.904;2023-04-24T17:07:59;2.53;;;2.00;;
8714;SDS011;4394;51.208;8.904;2023-04-24T17:10:49;4.70;;;2.43;;
8714;SDS011;4394;51.208;8.904;2023-04-24T17:13:37;2.83;;;2.00;;
8714;SDS011;4394;51.208;8.904;2023-04-24T17:16:26;3.83;;;1.80;;
8714;SDS011;4394;51.208;8.904;2023-04-24T17:19:15;2.03;;;1.80;;
8714;SDS011;4394;51.208;8.904;2023-04-24T17:22:04;2.47;;;1.77;;
8714;SDS011;4394;51.208;8.904;2023-04-24T17:24:52;5.63;;;1.80;;
8714;SDS011;4394;51.208;8.904;2023-04-24T17:27:42;3.87;;;1.93;;
8714;SDS011;4394;51.208;8.904;2023-04-24T17:30:31;1.97;;;1.60;;